createdAt,value
2019-03-03T00:01:01.920Z,92.52
2019-03-03T00:03:29.500Z,92.63
2019-03-03T00:05:56.941Z,92.63
2019-03-03T00:08:24.772Z,92.61
2019-03-03T00:10:52.349Z,92.27
2019-03-03T00:13:19.829Z,92.29
2019-03-03T00:15:47.293Z,92.27
2019-03-03T00:18:14.789Z,92.29
2019-03-03T00:20:42.224Z,92.36
2019-03-03T00:23:09.669Z,92.05
2019-03-03T00:25:37.344Z,91.91
2019-03-03T00:28:04.950Z,91.78
2019-03-03T00:30:32.540Z,91.62
2019-03-03T00:32:59.991Z,91.93
2019-03-03T00:35:27.498Z,91.95
2019-03-03T00:38:06.252Z,92.27
2019-03-03T00:41:02.297Z,92.31
2019-03-03T00:43:37.992Z,92.00
2019-03-03T00:46:23.594Z,91.53
2019-03-03T00:49:04.479Z,91.34
2019-03-03T00:51:54.355Z,91.38
2019-03-03T00:54:59.849Z,91.58
2019-03-03T00:57:49.567Z,91.33
2019-03-03T01:00:40.094Z,91.83
2019-03-03T01:03:13.415Z,91.98
2019-03-03T01:06:12.560Z,91.89
2019-03-03T01:09:08.579Z,91.83
2019-03-03T01:11:51.277Z,91.82
2019-03-03T01:14:29.597Z,91.19
2019-03-03T01:17:19.287Z,90.80
2019-03-03T01:20:05.856Z,90.54
2019-03-03T01:22:55.674Z,90.79
2019-03-03T01:25:23.201Z,91.13
2019-03-03T01:27:50.618Z,91.76
2019-03-03T01:30:18.192Z,92.10
2019-03-03T01:32:45.658Z,92.04
2019-03-03T01:35:13.118Z,91.66
2019-03-03T01:37:40.736Z,91.47
2019-03-03T01:40:08.537Z,91.75
2019-03-03T01:42:36.068Z,91.70
2019-03-03T01:45:04.336Z,91.47
2019-03-03T01:47:31.863Z,91.41
2019-03-03T01:49:59.318Z,91.39
2019-03-03T01:52:26.912Z,91.21
2019-03-03T01:54:54.361Z,91.64
2019-03-03T01:57:21.807Z,91.46
2019-03-03T01:59:49.295Z,91.79
2019-03-03T02:02:16.848Z,91.90
2019-03-03T02:04:44.367Z,91.35
2019-03-03T02:07:11.937Z,90.93
2019-03-03T02:09:39.419Z,91.26
2019-03-03T02:12:06.912Z,91.26
2019-03-03T02:14:34.406Z,91.57
2019-03-03T02:17:02.482Z,91.22
2019-03-03T02:19:30.077Z,91.28
2019-03-03T02:21:57.604Z,91.28
2019-03-03T02:24:25.087Z,90.88
2019-03-03T02:26:52.942Z,91.21
2019-03-03T02:29:20.437Z,91.27
2019-03-03T02:31:47.949Z,91.41
2019-03-03T02:34:15.419Z,91.29
2019-03-03T02:36:43.049Z,91.14
2019-03-03T02:39:15.659Z,91.71
2019-03-03T02:41:43.099Z,91.78
2019-03-03T02:44:10.599Z,91.40
2019-03-03T02:46:38.055Z,91.58
2019-03-03T02:49:05.496Z,91.54
2019-03-03T02:51:32.968Z,91.53
2019-03-03T02:54:00.465Z,91.60
2019-03-03T02:56:27.942Z,91.64
2019-03-03T02:58:55.385Z,91.72
2019-03-03T03:01:27.075Z,91.78
2019-03-03T03:03:54.549Z,91.76
2019-03-03T03:06:41.513Z,91.46
2019-03-03T03:09:12.209Z,91.42
2019-03-03T03:11:55.755Z,90.99
2019-03-03T03:14:42.012Z,90.62
2019-03-03T03:17:38.216Z,90.49
2019-03-03T03:20:24.799Z,90.58
2019-03-03T03:23:06.461Z,91.20
2019-03-03T03:25:49.920Z,91.29
2019-03-03T03:28:26.987Z,90.75
2019-03-03T03:31:22.989Z,91.23
2019-03-03T03:33:58.458Z,91.53
2019-03-03T03:36:39.522Z,91.71
2019-03-03T03:39:38.579Z,91.87
2019-03-03T03:42:18.037Z,91.78
2019-03-03T03:45:13.925Z,91.89
2019-03-03T03:47:59.508Z,91.92
2019-03-03T03:50:41.346Z,91.83
2019-03-03T03:53:27.200Z,91.37
2019-03-03T03:56:16.809Z,91.21
2019-03-03T03:59:00.538Z,90.94
2019-03-03T04:02:05.390Z,91.24
2019-03-03T04:04:39.369Z,91.47
2019-03-03T04:07:14.560Z,91.50
2019-03-03T04:09:46.499Z,91.56
2019-03-03T04:12:36.286Z,91.46
2019-03-03T04:15:10.080Z,91.53
2019-03-03T04:17:51.760Z,91.45
2019-03-03T04:20:54.007Z,91.44
2019-03-03T04:23:48.018Z,91.39
2019-03-03T04:26:33.762Z,91.29
2019-03-03T04:29:19.602Z,91.68
2019-03-03T04:32:01.147Z,91.37
2019-03-03T04:34:45.318Z,91.40
2019-03-03T04:37:21.987Z,91.00
2019-03-03T04:40:12.017Z,90.80
2019-03-03T04:42:47.097Z,90.62
2019-03-03T04:45:22.388Z,90.45
2019-03-03T04:48:08.243Z,90.45
2019-03-03T04:50:55.284Z,90.73
2019-03-03T04:53:45.231Z,90.35
2019-03-03T04:56:30.956Z,90.65
2019-03-03T04:59:23.749Z,91.25
2019-03-03T05:02:07.463Z,91.56
2019-03-03T05:04:56.481Z,91.38
2019-03-03T05:07:52.765Z,91.11
2019-03-03T05:10:30.909Z,91.19
2019-03-03T05:13:26.888Z,91.08
2019-03-03T05:16:12.723Z,90.86
2019-03-03T05:18:48.701Z,91.01
2019-03-03T05:21:16.157Z,90.92
2019-03-03T05:23:43.639Z,91.31
2019-03-03T05:26:11.116Z,91.28
2019-03-03T05:28:38.596Z,91.57
2019-03-03T05:31:06.071Z,92.05
2019-03-03T05:33:33.532Z,91.61
2019-03-03T05:36:00.980Z,91.56
2019-03-03T05:38:28.432Z,91.34
2019-03-03T05:40:55.912Z,91.37
2019-03-03T05:43:23.422Z,91.50
2019-03-03T05:45:50.856Z,91.47
2019-03-03T05:48:18.316Z,91.34
2019-03-03T05:50:46.016Z,91.02
2019-03-03T05:53:13.447Z,91.05
2019-03-03T05:55:40.912Z,90.53
2019-03-03T05:58:08.356Z,90.01
2019-03-03T06:00:35.814Z,90.08
2019-03-03T06:03:03.369Z,91.15
2019-03-03T06:05:30.821Z,91.83
2019-03-03T06:07:58.257Z,91.95
2019-03-03T06:10:25.736Z,91.72
2019-03-03T06:12:53.240Z,91.65
2019-03-03T06:15:20.712Z,91.76
2019-03-03T06:17:48.156Z,91.44
2019-03-03T06:20:15.622Z,91.26
2019-03-03T06:22:43.051Z,91.08
2019-03-03T06:25:10.619Z,90.75
2019-03-03T06:27:38.137Z,90.95
2019-03-03T06:30:07.438Z,90.85
2019-03-03T06:32:34.888Z,90.35
2019-03-03T06:35:02.471Z,90.74
2019-03-03T06:37:29.890Z,90.43
2019-03-03T06:39:57.400Z,90.27
2019-03-03T06:42:24.897Z,90.18
2019-03-03T06:44:52.337Z,90.60
2019-03-03T06:47:19.796Z,91.33
2019-03-03T06:49:47.257Z,91.28
2019-03-03T06:52:14.711Z,90.93
2019-03-03T06:54:42.197Z,91.09
2019-03-03T06:57:09.718Z,91.14
2019-03-03T06:59:37.164Z,91.10
2019-03-03T07:02:04.613Z,90.41
2019-03-03T07:04:32.056Z,90.83
2019-03-03T07:06:59.512Z,90.55
2019-03-03T07:09:26.977Z,89.70
2019-03-03T07:11:54.437Z,89.95
2019-03-03T07:14:21.911Z,89.84
2019-03-03T07:16:49.379Z,90.37
2019-03-03T07:19:16.829Z,89.73
2019-03-03T07:21:44.323Z,89.20
2019-03-03T07:24:11.791Z,89.46
2019-03-03T07:26:39.276Z,90.09
2019-03-03T07:29:06.763Z,89.78
2019-03-03T07:31:34.255Z,89.68
2019-03-03T07:34:02.897Z,89.26
2019-03-03T07:36:30.320Z,88.70
2019-03-03T07:38:57.863Z,89.15
2019-03-03T07:41:25.338Z,89.42
2019-03-03T07:43:52.804Z,89.07
2019-03-03T07:46:20.266Z,89.22
2019-03-03T07:48:47.777Z,88.60
2019-03-03T07:51:15.277Z,88.48
2019-03-03T07:53:42.740Z,88.40
2019-03-03T07:56:10.203Z,88.54
2019-03-03T07:58:37.687Z,89.19
2019-03-03T08:01:05.121Z,88.24
2019-03-03T08:03:32.723Z,88.64
2019-03-03T08:06:00.317Z,88.84
2019-03-03T08:08:27.818Z,88.41
2019-03-03T08:10:55.253Z,87.96
2019-03-03T08:13:22.739Z,87.32
2019-03-03T08:15:50.221Z,87.47
2019-03-03T08:18:17.728Z,88.04
2019-03-03T08:20:45.358Z,87.99
2019-03-03T08:23:12.852Z,87.89
2019-03-03T08:25:40.337Z,87.73
2019-03-03T08:28:07.861Z,88.03
2019-03-03T08:30:35.439Z,87.97
2019-03-03T08:33:03.018Z,87.66
2019-03-03T08:35:30.525Z,87.49
2019-03-03T08:37:59.880Z,87.76
2019-03-03T08:40:27.359Z,86.97
2019-03-03T08:43:23.450Z,86.62
2019-03-03T08:46:19.746Z,86.20
2019-03-03T08:48:57.658Z,85.78
2019-03-03T08:51:45.683Z,85.70
2019-03-03T08:54:31.017Z,85.14
2019-03-03T08:57:15.812Z,83.84
2019-03-03T09:00:20.849Z,82.55
2019-03-03T09:03:17.202Z,82.99
2019-03-03T09:06:07.151Z,76.26
2019-03-03T09:08:52.266Z,71.82
2019-03-03T09:11:31.074Z,75.67
2019-03-03T09:14:17.487Z,72.34
2019-03-03T09:17:14.947Z,68.63
2019-03-03T09:20:04.890Z,66.34
2019-03-03T09:22:51.885Z,66.41
2019-03-03T09:25:48.061Z,66.25
2019-03-03T09:28:35.090Z,68.31
2019-03-03T09:31:20.694Z,70.43
2019-03-03T09:33:56.053Z,70.97
2019-03-03T09:36:37.298Z,73.06
2019-03-03T09:39:28.766Z,73.56
2019-03-03T09:42:05.396Z,68.66
2019-03-03T09:45:07.730Z,66.12
2019-03-03T09:47:44.777Z,67.92
2019-03-03T09:50:23.263Z,65.23
2019-03-03T09:53:08.787Z,64.82
2019-03-03T09:55:53.518Z,64.99
2019-03-03T09:58:40.596Z,65.87
2019-03-03T10:01:19.572Z,65.10
2019-03-03T10:04:12.632Z,68.77
2019-03-03T10:06:57.866Z,65.81
2019-03-03T10:09:47.932Z,66.49
2019-03-03T10:12:37.659Z,64.83
2019-03-03T10:15:25.959Z,62.54
2019-03-03T10:18:11.748Z,61.68
2019-03-03T10:21:11.329Z,60.77
2019-03-03T10:24:10.334Z,61.48
2019-03-03T10:26:48.437Z,62.96
2019-03-03T10:29:53.811Z,62.69
2019-03-03T10:32:39.369Z,62.32
2019-03-03T10:35:22.162Z,62.35
2019-03-03T10:38:08.209Z,64.24
2019-03-03T10:40:54.402Z,64.47
2019-03-03T10:43:47.645Z,65.05
2019-03-03T10:46:34.867Z,65.35
2019-03-03T10:49:09.533Z,57.11
2019-03-03T10:51:55.863Z,57.29
2019-03-03T10:54:46.027Z,56.65
2019-03-03T10:57:42.182Z,56.70
2019-03-03T11:00:32.257Z,54.74
2019-03-03T11:03:17.927Z,57.23
2019-03-03T11:06:01.939Z,55.63
2019-03-03T11:08:58.217Z,57.17
2019-03-03T11:11:44.411Z,55.35
2019-03-03T11:14:22.480Z,57.68
2019-03-03T11:17:12.778Z,53.17
2019-03-03T11:19:54.888Z,52.02
2019-03-03T11:22:48.388Z,53.37
2019-03-03T11:25:34.145Z,55.37
2019-03-03T11:28:29.323Z,54.80
2019-03-03T11:31:16.759Z,53.39
2019-03-03T11:33:55.974Z,56.22
2019-03-03T11:36:30.197Z,52.22
2019-03-03T11:39:26.072Z,55.46
2019-03-03T11:42:19.815Z,53.33
2019-03-03T11:44:55.509Z,50.27
2019-03-03T11:47:42.910Z,50.84
2019-03-03T11:50:28.893Z,50.94
2019-03-03T11:53:22.339Z,49.69
2019-03-03T11:56:15.865Z,50.01
2019-03-03T11:59:01.571Z,49.72
2019-03-03T12:02:01.132Z,49.68
2019-03-03T12:04:47.255Z,49.71
2019-03-03T12:07:40.162Z,49.35
2019-03-03T12:10:27.851Z,47.70
2019-03-03T12:13:21.319Z,48.51
2019-03-03T12:16:07.448Z,47.89
2019-03-03T12:18:53.614Z,47.37
2019-03-03T12:21:39.894Z,47.25
2019-03-03T12:24:14.645Z,48.28
2019-03-03T12:26:54.872Z,48.05
2019-03-03T12:29:36.149Z,47.29
2019-03-03T12:32:21.931Z,46.72
2019-03-03T12:35:16.506Z,47.49
2019-03-03T12:38:12.437Z,47.51
2019-03-03T12:41:11.611Z,47.36
2019-03-03T12:44:11.063Z,47.27
2019-03-03T12:47:01.255Z,48.07
2019-03-03T12:49:45.435Z,47.30
2019-03-03T12:52:20.979Z,48.84
2019-03-03T12:55:07.221Z,49.00
2019-03-03T12:57:48.357Z,47.66
2019-03-03T13:00:38.357Z,47.85
2019-03-03T13:03:34.755Z,47.71
2019-03-03T13:06:26.431Z,46.10
2019-03-03T13:09:19.684Z,44.66
2019-03-03T13:11:57.027Z,46.67
2019-03-03T13:14:33.078Z,48.31
2019-03-03T13:17:17.862Z,47.87
2019-03-03T13:20:03.759Z,45.94
2019-03-03T13:22:42.666Z,48.82
2019-03-03T13:25:22.375Z,51.65
2019-03-03T13:28:09.830Z,50.82
2019-03-03T13:30:55.821Z,50.98
2019-03-03T13:33:43.275Z,49.32
2019-03-03T13:36:25.597Z,48.22
2019-03-03T13:39:06.952Z,46.45
2019-03-03T13:41:42.044Z,50.55
2019-03-03T13:44:10.011Z,50.16
2019-03-03T13:46:38.454Z,51.24
2019-03-03T13:49:06.443Z,49.94
2019-03-03T13:51:34.574Z,54.50
2019-03-03T13:54:02.620Z,54.46
2019-03-03T13:56:31.071Z,55.12
2019-03-03T13:58:59.066Z,54.62
2019-03-03T14:01:27.127Z,54.73
2019-03-03T14:03:55.189Z,57.68
2019-03-03T14:06:23.258Z,55.90
2019-03-03T14:08:51.498Z,54.23
2019-03-03T14:11:27.222Z,53.78
2019-03-03T14:13:55.258Z,52.10
2019-03-03T14:16:23.181Z,51.44
2019-03-03T14:18:51.220Z,49.92
2019-03-03T14:21:19.314Z,51.43
2019-03-03T14:23:47.326Z,51.42
2019-03-03T14:26:15.571Z,50.81
2019-03-03T14:28:43.518Z,52.74
2019-03-03T14:31:11.568Z,52.54
2019-03-03T14:33:39.564Z,51.77
2019-03-03T14:36:07.596Z,51.57
2019-03-03T14:38:35.988Z,57.22
2019-03-03T14:41:04.007Z,60.63
2019-03-03T14:43:32.015Z,59.52
2019-03-03T14:46:00.007Z,57.01
2019-03-03T14:48:28.050Z,53.79
2019-03-03T14:50:56.013Z,55.85
2019-03-03T14:53:24.181Z,56.00
2019-03-03T14:55:52.202Z,58.43
2019-03-03T14:58:21.936Z,58.38
2019-03-03T15:00:49.965Z,56.55
2019-03-03T15:03:17.980Z,55.41
2019-03-03T15:05:46.117Z,57.84
2019-03-03T15:08:14.241Z,57.85
2019-03-03T15:10:42.251Z,55.90
2019-03-03T15:13:10.304Z,54.57
2019-03-03T15:15:38.497Z,54.67
2019-03-03T15:18:06.834Z,57.97
2019-03-03T15:20:34.949Z,61.49
2019-03-03T15:23:02.992Z,61.73
2019-03-03T15:25:31.150Z,62.41
2019-03-03T15:27:59.174Z,61.84
2019-03-03T15:30:27.256Z,61.80
2019-03-03T15:32:55.282Z,62.39
2019-03-03T15:35:24.333Z,62.71
2019-03-03T15:37:52.346Z,60.20
2019-03-03T15:40:20.462Z,61.44
2019-03-03T15:42:48.683Z,60.58
2019-03-03T15:45:18.793Z,61.33
2019-03-03T15:47:46.991Z,62.86
2019-03-03T15:50:16.343Z,63.48
2019-03-03T15:52:44.426Z,63.63
2019-03-03T15:55:13.170Z,62.54
2019-03-03T15:57:41.803Z,57.66
2019-03-03T16:00:16.520Z,60.80
2019-03-03T16:02:44.787Z,59.95
2019-03-03T16:05:12.982Z,61.73
2019-03-03T16:07:41.285Z,64.67
2019-03-03T16:10:10.447Z,66.39
2019-03-03T16:12:38.563Z,64.68
2019-03-03T16:15:08.089Z,61.35
2019-03-03T16:17:36.231Z,64.35
2019-03-03T16:20:04.948Z,65.93
2019-03-03T16:22:35.390Z,62.79
2019-03-03T16:25:03.659Z,64.14
2019-03-03T16:27:32.415Z,64.57
2019-03-03T16:30:00.803Z,62.91
2019-03-03T16:32:28.941Z,65.58
2019-03-03T16:34:57.905Z,66.77
2019-03-03T16:37:26.380Z,65.30
2019-03-03T16:39:54.522Z,65.92
2019-03-03T16:42:23.838Z,67.61
2019-03-03T16:44:52.498Z,65.66
2019-03-03T16:47:20.951Z,59.38
2019-03-03T16:49:49.046Z,60.82
2019-03-03T16:52:17.293Z,61.22
2019-03-03T16:54:45.491Z,62.19
2019-03-03T16:57:13.766Z,64.38
2019-03-03T16:59:41.818Z,67.17
2019-03-03T17:02:09.923Z,68.03
2019-03-03T17:04:38.042Z,67.79
2019-03-03T17:07:06.231Z,64.99
2019-03-03T17:09:34.434Z,63.35
2019-03-03T17:12:02.533Z,64.45
2019-03-03T17:14:30.774Z,66.72
2019-03-03T17:17:00.413Z,68.88
2019-03-03T17:19:28.563Z,66.01
2019-03-03T17:21:56.972Z,65.49
2019-03-03T17:24:26.441Z,67.11
2019-03-03T17:26:54.606Z,67.27
2019-03-03T17:29:22.853Z,66.91
2019-03-03T17:31:51.095Z,65.44
2019-03-03T17:34:20.179Z,65.44
2019-03-03T17:36:50.221Z,67.62
2019-03-03T17:39:18.337Z,68.92
2019-03-03T17:41:46.491Z,69.68
2019-03-03T17:44:14.562Z,67.53
2019-03-03T17:46:42.665Z,68.11
2019-03-03T17:49:10.746Z,66.58
2019-03-03T17:51:38.806Z,65.00
2019-03-03T17:54:06.855Z,67.75
2019-03-03T17:56:35.264Z,69.93
2019-03-03T17:59:04.790Z,71.07
2019-03-03T18:01:33.601Z,71.49
2019-03-03T18:04:01.892Z,70.96
2019-03-03T18:06:38.559Z,71.25
2019-03-03T18:09:00.612Z,71.15
2019-03-03T18:11:28.769Z,69.62
2019-03-03T18:13:58.356Z,70.85
2019-03-03T18:16:26.418Z,71.17
2019-03-03T18:18:54.547Z,69.40
2019-03-03T18:21:23.898Z,70.91
2019-03-03T18:23:52.036Z,70.97
2019-03-03T18:26:20.606Z,70.23
2019-03-03T18:28:48.811Z,72.30
2019-03-03T18:31:20.213Z,72.78
2019-03-03T18:33:49.958Z,72.27
2019-03-03T18:36:18.234Z,67.07
2019-03-03T18:38:46.306Z,68.45
2019-03-03T18:41:14.444Z,67.64
2019-03-03T18:43:42.546Z,67.78
2019-03-03T18:46:11.067Z,69.21
2019-03-03T18:48:39.243Z,66.93
2019-03-03T18:51:08.612Z,66.64
2019-03-03T18:53:39.337Z,65.39
2019-03-03T18:56:09.647Z,68.27
2019-03-03T18:58:37.771Z,69.36
2019-03-03T19:01:06.117Z,68.02
2019-03-03T19:03:34.578Z,68.81
2019-03-03T19:06:03.431Z,68.11
2019-03-03T19:08:31.529Z,68.00
2019-03-03T19:11:00.398Z,68.32
2019-03-03T19:13:28.652Z,67.60
2019-03-03T19:15:57.712Z,69.07
2019-03-03T19:18:27.059Z,70.50
2019-03-03T19:20:55.269Z,72.09
2019-03-03T19:23:23.394Z,71.65
2019-03-03T19:25:51.608Z,71.42
2019-03-03T19:28:19.781Z,70.55
2019-03-03T19:30:47.884Z,69.76
2019-03-03T19:33:25.316Z,70.51
2019-03-03T19:35:55.693Z,71.04
2019-03-03T19:38:23.813Z,70.48
2019-03-03T19:40:51.933Z,70.83
2019-03-03T19:43:21.349Z,72.02
2019-03-03T19:45:49.651Z,72.49
2019-03-03T19:48:17.833Z,71.88
2019-03-03T19:50:47.317Z,72.53
2019-03-03T19:53:15.414Z,72.70
2019-03-03T19:55:43.991Z,73.25
2019-03-03T19:58:12.172Z,72.07
2019-03-03T20:00:42.464Z,74.32
2019-03-03T20:03:10.618Z,75.47
2019-03-03T20:05:40.085Z,73.72
2019-03-03T20:08:09.449Z,74.37
2019-03-03T20:10:39.546Z,75.32
2019-03-03T20:13:07.620Z,74.62
2019-03-03T20:15:37.036Z,74.73
2019-03-03T20:18:25.719Z,75.38
2019-03-03T20:20:54.054Z,75.98
2019-03-03T20:23:22.156Z,75.62
2019-03-03T20:25:53.107Z,75.20
2019-03-03T20:28:21.786Z,75.91
2019-03-03T20:30:50.757Z,76.29
2019-03-03T20:33:19.046Z,75.43
2019-03-03T20:35:47.164Z,76.38
2019-03-03T20:38:15.279Z,76.37
2019-03-03T20:40:43.406Z,76.91
2019-03-03T20:43:11.471Z,76.85
2019-03-03T20:45:40.766Z,76.55
2019-03-03T20:48:08.820Z,77.17
2019-03-03T20:50:36.930Z,77.12
2019-03-03T20:53:05.133Z,77.10
2019-03-03T20:55:33.416Z,77.40
2019-03-03T20:58:07.962Z,77.40
2019-03-03T21:00:36.783Z,77.35
2019-03-03T21:03:04.804Z,77.12
2019-03-03T21:05:33.223Z,76.46
2019-03-03T21:08:01.265Z,75.45
2019-03-03T21:10:29.660Z,76.11
2019-03-03T21:12:58.807Z,76.60
2019-03-03T21:15:26.864Z,76.68
2019-03-03T21:17:55.304Z,76.80
2019-03-03T21:20:23.637Z,77.47
2019-03-03T21:22:51.697Z,77.42
2019-03-03T21:25:20.782Z,77.57
2019-03-03T21:27:49.112Z,77.95
2019-03-03T21:30:19.060Z,77.45
2019-03-03T21:32:47.303Z,77.12
2019-03-03T21:35:15.500Z,77.24
2019-03-03T21:37:43.469Z,77.22
2019-03-03T21:40:12.657Z,76.56
2019-03-03T21:42:40.613Z,77.59
2019-03-03T21:45:09.860Z,77.75
2019-03-03T21:47:37.972Z,77.50
2019-03-03T21:50:07.735Z,77.63
2019-03-03T21:52:35.730Z,77.45
2019-03-03T21:55:04.760Z,77.86
2019-03-03T21:57:32.729Z,77.88
2019-03-03T22:00:00.410Z,78.06
2019-03-03T22:02:28.312Z,78.15
2019-03-03T22:04:55.958Z,79.51
2019-03-03T22:07:26.075Z,79.61
2019-03-03T22:09:53.698Z,79.25
2019-03-03T22:12:21.265Z,79.18
2019-03-03T22:14:48.810Z,79.07
2019-03-03T22:17:16.279Z,79.83
2019-03-03T22:19:43.749Z,79.51
2019-03-03T22:22:11.239Z,79.61
2019-03-03T22:24:38.685Z,79.12
2019-03-03T22:27:06.143Z,79.17
2019-03-03T22:29:33.702Z,80.33
2019-03-03T22:32:01.146Z,79.55
2019-03-03T22:34:28.618Z,79.68
2019-03-03T22:36:56.149Z,79.73
2019-03-03T22:39:23.668Z,80.02
2019-03-03T22:41:51.117Z,80.07
2019-03-03T22:44:18.594Z,79.62
2019-03-03T22:46:46.024Z,78.98
2019-03-03T22:49:13.527Z,78.66
2019-03-03T22:51:41.018Z,78.35
2019-03-03T22:54:08.460Z,78.19
2019-03-03T22:56:35.960Z,78.56
2019-03-03T22:59:03.642Z,78.32
2019-03-03T23:01:37.819Z,78.43
2019-03-03T23:04:11.613Z,78.54
2019-03-03T23:06:55.900Z,79.04
2019-03-03T23:10:26.558Z,78.95
2019-03-03T23:13:31.038Z,78.81
2019-03-03T23:16:28.642Z,79.12
2019-03-03T23:19:26.446Z,79.32
2019-03-03T23:22:25.968Z,79.28
2019-03-03T23:25:05.846Z,78.99
2019-03-03T23:27:33.342Z,79.63
2019-03-03T23:30:00.817Z,79.54
2019-03-03T23:32:28.262Z,80.24
2019-03-03T23:34:55.743Z,80.20
2019-03-03T23:37:23.244Z,80.41
2019-03-03T23:39:50.756Z,80.05
2019-03-03T23:42:18.339Z,79.32
2019-03-03T23:44:45.792Z,79.73
2019-03-03T23:47:13.258Z,80.19
2019-03-03T23:49:40.742Z,80.70
2019-03-03T23:52:08.246Z,80.75
2019-03-03T23:54:35.707Z,79.79
2019-03-03T23:57:03.208Z,79.96
2019-03-03T23:59:30.858Z,79.75
